Time;durP1;ratioP1;P1;durP2;ratioP2;P2;SDS_P1;SDS_P2;PMS_P1;PMS_P2;Temp;Humidity;BMP_temperature;BMP_pressure;BME280_temperature;BME280_humidity;BME280_pressure;Samples;Min_cycle;Max_cycle;Signal;HPM_P1;HPM_P2
2022/10/30 00:01:10;;;;;;;7.87;5.30;;;18.80;99.90;;;;;;5012838;28;20427;-74
2022/10/30 00:03:38;;;;;;;7.80;5.27;;;18.80;99.90;;;;;;5014336;28;20532;-74
2022/10/30 00:06:05;;;;;;;8.60;4.90;;;18.80;99.90;;;;;;5013834;28;20998;-74
2022/10/30 00:08:33;;;;;;;8.00;5.10;;;18.70;99.90;;;;;;4996463;28;20447;-72
2022/10/30 00:11:09;;;;;;;7.27;5.57;;;18.70;99.90;;;;;;5013389;28;20426;-75
2022/10/30 00:13:35;;;;;;;7.70;6.20;;;18.70;99.90;;;;;;4995688;28;21025;-73
2022/10/30 00:16:05;;;;;;;6.97;5.23;;;18.70;99.90;;;;;;4964363;28;20455;-73
2022/10/30 00:18:37;;;;;;;9.77;5.60;;;18.70;99.90;;;;;;5014036;28;20433;-73
2022/10/30 00:21:08;;;;;;;11.30;5.40;;;18.70;99.90;;;;;;5012293;28;20424;-72
2022/10/30 00:23:34;;;;;;;5.93;4.80;;;18.70;99.90;;;;;;4995319;28;20463;-73
2022/10/30 00:26:05;;;;;;;9.40;5.80;;;18.70;99.90;;;;;;4996151;28;21031;-73
2022/10/30 00:28:39;;;;;;;7.00;5.80;;;18.70;99.90;;;;;;4980321;28;20994;-73
2022/10/30 00:31:05;;;;;;;8.33;5.90;;;18.70;99.90;;;;;;5011764;28;20426;-73
2022/10/30 00:33:32;;;;;;;10.20;6.00;;;18.70;99.90;;;;;;4995519;28;20462;-73
2022/10/30 00:35:58;;;;;;;12.03;5.70;;;18.70;99.90;;;;;;4995813;28;20449;-73
2022/10/30 00:38:27;;;;;;;8.10;5.47;;;18.70;99.90;;;;;;4979889;28;20455;-73
2022/10/30 00:40:56;;;;;;;6.67;5.20;;;18.70;99.90;;;;;;5012032;28;20466;-73
2022/10/30 00:43:31;;;;;;;15.07;6.13;;;18.70;99.90;;;;;;4979515;28;20493;-73
2022/10/30 00:46:26;;;;;;;6.90;6.03;;;18.70;99.90;;;;;;4995621;28;20449;-72
2022/10/30 00:49:02;;;;;;;8.03;5.00;;;18.70;99.90;;;;;;4995170;28;20447;-73
2022/10/30 00:51:35;;;;;;;16.27;6.13;;;18.70;99.90;;;;;;4996063;28;20789;-73
2022/10/30 00:54:09;;;;;;;11.10;5.70;;;18.70;99.90;;;;;;5013114;28;20477;-73
2022/10/30 00:56:40;;;;;;;8.70;6.20;;;18.60;99.90;;;;;;4995415;28;20759;-73
2022/10/30 00:59:16;;;;;;;13.90;5.60;;;18.60;99.90;;;;;;4979190;28;20454;-73
2022/10/30 01:01:45;;;;;;;6.70;5.90;;;18.70;99.90;;;;;;4994951;28;20435;-73
2022/10/30 01:04:15;;;;;;;8.30;5.23;;;18.60;99.90;;;;;;4979541;28;20802;-73
2022/10/30 01:06:47;;;;;;;9.93;5.80;;;18.60;99.90;;;;;;4979415;28;20435;-73
2022/10/30 01:09:16;;;;;;;9.00;5.33;;;18.60;99.90;;;;;;4979201;28;20470;-73
2022/10/30 01:11:45;;;;;;;8.23;5.30;;;18.60;99.90;;;;;;4995190;28;20523;-73
2022/10/30 01:14:16;;;;;;;7.20;4.83;;;18.60;99.90;;;;;;4994766;28;20463;-73
2022/10/30 01:17:15;;;;;;;6.67;5.67;;;18.60;99.90;;;;;;4995609;28;20476;-73
2022/10/30 01:19:54;;;;;;;8.40;5.50;;;18.60;99.90;;;;;;4978315;28;20431;-73
2022/10/30 01:22:42;;;;;;;7.50;4.90;;;18.60;99.90;;;;;;4979200;28;20451;-74
2022/10/30 01:25:11;;;;;;;8.50;5.27;;;18.60;99.90;;;;;;4995322;28;20542;-73
2022/10/30 01:28:09;;;;;;;7.23;5.20;;;18.60;99.90;;;;;;4978807;28;20455;-73
2022/10/30 01:31:09;;;;;;;13.10;5.70;;;18.60;99.90;;;;;;4980156;28;20838;-72
2022/10/30 01:33:38;;;;;;;8.57;5.80;;;18.60;99.90;;;;;;4994889;28;20479;-73
2022/10/30 01:36:31;;;;;;;8.47;5.83;;;18.60;99.90;;;;;;4977956;28;20454;-73
2022/10/30 01:39:04;;;;;;;7.53;5.23;;;18.60;99.90;;;;;;4984311;28;20522;-73
2022/10/30 01:41:30;;;;;;;8.77;5.40;;;18.60;99.90;;;;;;4983639;28;20429;-73
2022/10/30 01:44:08;;;;;;;5.97;4.83;;;18.60;99.90;;;;;;4995179;28;20399;-74
2022/10/30 01:47:13;;;;;;;5.77;5.20;;;18.60;99.90;;;;;;4995184;28;20430;-73
2022/10/30 01:50:12;;;;;;;9.47;5.00;;;18.60;99.90;;;;;;4994786;28;20959;-73
2022/10/30 01:52:52;;;;;;;5.90;5.00;;;18.60;99.90;;;;;;5008594;28;20835;-73
2022/10/30 01:55:53;;;;;;;7.90;5.20;;;18.50;99.90;;;;;;4994892;28;20486;-73
2022/10/30 01:58:36;;;;;;;8.33;5.63;;;18.50;99.90;;;;;;4989440;28;20815;-73
2022/10/30 02:01:27;;;;;;;8.33;5.47;;;18.50;99.90;;;;;;4996783;28;20510;-73
2022/10/30 02:03:54;;;;;;;8.83;5.50;;;18.50;99.90;;;;;;4994789;28;20893;-73
2022/10/30 02:06:21;;;;;;;10.93;6.40;;;18.50;99.90;;;;;;4978694;28;20428;-73
2022/10/30 02:08:49;;;;;;;9.83;5.70;;;18.50;99.90;;;;;;4978666;28;20454;-73
2022/10/30 02:11:16;;;;;;;7.50;4.70;;;18.50;99.90;;;;;;4978408;28;20458;-73
2022/10/30 02:13:42;;;;;;;7.50;5.43;;;18.50;99.90;;;;;;4994423;28;20533;-73
2022/10/30 02:16:10;;;;;;;10.17;5.77;;;18.50;99.90;;;;;;4978652;28;20466;-73
2022/10/30 02:18:37;;;;;;;7.43;5.03;;;18.50;99.90;;;;;;4994359;28;20461;-73
2022/10/30 02:21:08;;;;;;;7.73;5.70;;;18.50;99.90;;;;;;5007203;28;20455;-73
2022/10/30 02:23:46;;;;;;;7.33;5.70;;;18.50;99.90;;;;;;4995231;28;20466;-73
2022/10/30 02:26:17;;;;;;;5.70;4.73;;;18.40;99.90;;;;;;4963050;28;20427;-73
2022/10/30 02:28:43;;;;;;;7.13;5.13;;;18.50;99.90;;;;;;4993781;28;20466;-72
2022/10/30 02:31:10;;;;;;;10.93;5.33;;;18.50;99.90;;;;;;4962385;28;21148;-73
2022/10/30 02:33:36;;;;;;;7.13;5.10;;;18.50;99.90;;;;;;4994677;28;20469;-73
2022/10/30 02:36:03;;;;;;;7.23;5.87;;;18.50;99.90;;;;;;4994145;28;20955;-73
2022/10/30 02:38:30;;;;;;;8.57;5.03;;;18.40;99.90;;;;;;4994092;28;20987;-73
2022/10/30 02:40:57;;;;;;;8.63;5.60;;;18.40;99.90;;;;;;5010418;28;20419;-73
2022/10/30 02:43:23;;;;;;;8.43;5.07;;;18.40;99.90;;;;;;4994699;28;20935;-73
2022/10/30 02:45:50;;;;;;;7.00;5.40;;;18.40;99.90;;;;;;4994256;28;20455;-74
2022/10/30 02:48:20;;;;;;;5.80;5.20;;;18.40;99.90;;;;;;5011667;28;20489;-73
2022/10/30 02:50:47;;;;;;;8.27;5.13;;;18.40;99.90;;;;;;4977869;28;20602;-73
2022/10/30 02:53:15;;;;;;;9.67;5.43;;;18.40;99.90;;;;;;4994314;28;20406;-73
2022/10/30 02:55:44;;;;;;;6.07;4.87;;;18.40;99.90;;;;;;4994105;28;20832;-73
2022/10/30 02:58:15;;;;;;;10.13;5.90;;;18.40;99.90;;;;;;4994507;28;20448;-73
2022/10/30 03:00:41;;;;;;;6.70;5.13;;;18.40;99.90;;;;;;5006533;28;20797;-73
2022/10/30 03:03:10;;;;;;;5.63;5.03;;;18.40;99.90;;;;;;5006319;28;20454;-73
2022/10/30 03:05:36;;;;;;;9.97;5.40;;;18.40;99.90;;;;;;4993901;28;20904;-73
2022/10/30 03:08:02;;;;;;;7.77;5.37;;;18.40;99.90;;;;;;5009990;28;20450;-73
2022/10/30 03:10:32;;;;;;;6.10;4.97;;;18.40;99.90;;;;;;4994012;28;20403;-73
2022/10/30 03:13:00;;;;;;;6.00;5.13;;;18.40;99.90;;;;;;5012236;28;20778;-73
2022/10/30 03:15:26;;;;;;;6.93;5.30;;;18.30;99.90;;;;;;4997747;28;20415;-73
2022/10/30 03:17:59;;;;;;;10.63;5.10;;;18.40;99.90;;;;;;4997961;28;20450;-73
2022/10/30 03:20:25;;;;;;;7.77;5.40;;;18.30;99.90;;;;;;5012806;28;20875;-73
2022/10/30 03:22:53;;;;;;;7.30;5.50;;;18.30;99.90;;;;;;4981266;28;20426;-73
2022/10/30 03:25:22;;;;;;;6.93;4.77;;;18.30;99.90;;;;;;5013070;28;20484;-73
2022/10/30 03:27:54;;;;;;;10.60;5.60;;;18.30;99.90;;;;;;4980911;28;20446;-73
2022/10/30 03:30:23;;;;;;;7.20;5.20;;;18.30;99.90;;;;;;5007996;28;20417;-72
2022/10/30 03:32:48;;;;;;;9.73;5.33;;;18.30;99.90;;;;;;4997088;28;20481;-73
2022/10/30 03:35:15;;;;;;;7.10;5.40;;;18.30;99.90;;;;;;5012911;28;20455;-73
2022/10/30 03:37:43;;;;;;;7.57;5.07;;;18.30;99.90;;;;;;4996588;28;20532;-73
2022/10/30 03:40:09;;;;;;;9.90;5.20;;;18.30;99.90;;;;;;4996919;28;20387;-73
2022/10/30 03:42:39;;;;;;;8.60;5.63;;;18.30;99.90;;;;;;4980450;28;20450;-73
2022/10/30 03:45:06;;;;;;;9.20;5.83;;;18.30;99.90;;;;;;4980251;28;20434;-73
2022/10/30 03:47:36;;;;;;;7.57;5.87;;;18.30;99.90;;;;;;4996746;28;20418;-73
2022/10/30 03:50:05;;;;;;;8.43;6.50;;;18.30;99.90;;;;;;4997481;28;20441;-73
2022/10/30 03:52:31;;;;;;;7.60;4.83;;;18.30;99.90;;;;;;4996470;28;20889;-73
2022/10/30 03:54:57;;;;;;;10.77;6.20;;;18.30;99.90;;;;;;4976911;28;20834;-74
2022/10/30 03:57:26;;;;;;;7.53;4.97;;;18.30;99.90;;;;;;4998614;28;20423;-71
2022/10/30 04:00:06;;;;;;;9.63;5.53;;;18.30;99.90;;;;;;4996375;28;20450;-73
2022/10/30 04:02:50;;;;;;;9.00;5.43;;;18.20;99.90;;;;;;4996862;28;20444;-73
2022/10/30 04:05:25;;;;;;;7.03;5.33;;;18.20;99.90;;;;;;5013328;28;20518;-73
2022/10/30 04:08:06;;;;;;;8.00;5.07;;;18.20;99.90;;;;;;5006133;28;20446;-73
2022/10/30 04:10:35;;;;;;;8.20;5.10;;;18.20;99.90;;;;;;4980650;28;20978;-73
2022/10/30 04:13:08;;;;;;;8.10;5.50;;;18.20;99.90;;;;;;4980063;28;20419;-73
2022/10/30 04:15:41;;;;;;;5.83;4.70;;;18.20;99.90;;;;;;4997025;28;20429;-73
2022/10/30 04:18:10;;;;;;;8.00;5.07;;;18.20;99.90;;;;;;4996079;28;20444;-73
2022/10/30 04:20:37;;;;;;;5.80;5.20;;;18.20;99.90;;;;;;4996449;28;20446;-73
2022/10/30 04:23:05;;;;;;;7.67;5.13;;;18.20;99.90;;;;;;5013517;28;20414;-73
2022/10/30 04:25:36;;;;;;;5.57;4.97;;;18.20;99.90;;;;;;4995979;28;20790;-73
2022/10/30 04:28:11;;;;;;;8.80;5.53;;;18.20;99.90;;;;;;4996267;28;21051;-73
2022/10/30 04:30:39;;;;;;;8.40;5.40;;;18.10;99.90;;;;;;4997792;28;20442;-73
2022/10/30 04:33:07;;;;;;;8.20;5.40;;;18.10;99.90;;;;;;5013869;28;20832;-73
2022/10/30 04:35:40;;;;;;;9.73;6.53;;;18.10;99.90;;;;;;4996743;28;20458;-73
2022/10/30 04:38:17;;;;;;;8.47;5.60;;;18.10;99.90;;;;;;5016063;28;20545;-73
2022/10/30 04:40:44;;;;;;;6.97;4.90;;;18.10;99.90;;;;;;5070608;23;20507;-69
2022/10/30 04:43:12;;;;;;;5.17;4.53;;;18.10;99.90;;;;;;4986421;28;20426;-70
2022/10/30 04:45:39;;;;;;;10.00;5.13;;;18.10;99.90;;;;;;5012146;28;20391;-69
2022/10/30 04:48:13;;;;;;;10.13;5.17;;;18.10;99.90;;;;;;4996298;28;20440;-70
2022/10/30 04:50:41;;;;;;;8.30;5.33;;;18.10;99.90;;;;;;4979890;28;20457;-70
2022/10/30 04:53:13;;;;;;;6.57;5.37;;;18.10;99.90;;;;;;5012259;28;20571;-70
2022/10/30 04:55:40;;;;;;;8.17;5.00;;;18.10;99.90;;;;;;4999234;28;20424;-70
2022/10/30 04:58:11;;;;;;;9.43;5.40;;;18.00;99.90;;;;;;5030065;28;20454;-69
2022/10/30 05:00:43;;;;;;;5.93;4.53;;;18.00;99.90;;;;;;5010750;28;20426;-70
2022/10/30 05:03:19;;;;;;;6.43;4.77;;;18.00;99.90;;;;;;4979556;28;20919;-70
2022/10/30 05:05:47;;;;;;;6.13;4.70;;;18.00;99.90;;;;;;4997640;28;20965;-70
2022/10/30 05:08:16;;;;;;;11.17;6.10;;;18.00;99.90;;;;;;4989268;28;20445;-70
2022/10/30 05:10:44;;;;;;;6.50;5.00;;;18.00;99.90;;;;;;5027706;28;21001;-70
2022/10/30 05:13:12;;;;;;;7.20;5.77;;;18.00;99.90;;;;;;4979531;28;20515;-70
2022/10/30 05:15:38;;;;;;;9.67;5.50;;;18.00;99.90;;;;;;5020630;28;20520;-70
2022/10/30 05:18:15;;;;;;;11.30;5.03;;;18.00;99.90;;;;;;5031439;28;20461;-70
2022/10/30 05:20:41;;;;;;;10.07;5.47;;;18.00;99.90;;;;;;5007064;28;20941;-70
2022/10/30 05:23:11;;;;;;;8.37;5.30;;;18.00;99.90;;;;;;5011477;28;20452;-70
2022/10/30 05:25:37;;;;;;;6.10;4.90;;;18.00;99.90;;;;;;4985741;28;20541;-70
2022/10/30 05:28:05;;;;;;;11.87;5.73;;;17.90;99.90;;;;;;5014874;28;20441;-70
2022/10/30 05:30:37;;;;;;;6.50;5.33;;;17.90;99.90;;;;;;4995668;28;20460;-70
2022/10/30 05:33:14;;;;;;;11.60;5.00;;;17.90;99.90;;;;;;5015209;28;20392;-70
2022/10/30 05:35:40;;;;;;;7.10;5.17;;;17.90;99.90;;;;;;5006367;28;20434;-70
2022/10/30 05:38:20;;;;;;;8.13;5.43;;;17.90;99.90;;;;;;5006975;28;20820;-70
2022/10/30 05:40:46;;;;;;;8.00;5.33;;;17.90;99.90;;;;;;5005333;28;20444;-70
2022/10/30 05:43:14;;;;;;;6.10;5.50;;;17.90;99.90;;;;;;4995328;28;20413;-70
2022/10/30 05:45:40;;;;;;;8.10;5.90;;;17.80;99.90;;;;;;5002573;28;20447;-70
2022/10/30 05:48:07;;;;;;;7.43;5.23;;;17.80;99.90;;;;;;5014480;28;20428;-70
2022/10/30 05:50:43;;;;;;;8.30;5.57;;;17.80;99.90;;;;;;5030870;28;20440;-70
2022/10/30 05:53:29;;;;;;;5.43;4.60;;;17.80;99.90;;;;;;5031097;28;20444;-70
2022/10/30 05:55:57;;;;;;;11.80;5.33;;;17.80;99.90;;;;;;4991518;28;20454;-70
2022/10/30 05:58:26;;;;;;;11.93;5.53;;;17.80;99.90;;;;;;5009431;28;20438;-70
2022/10/30 06:00:54;;;;;;;7.57;5.37;;;17.80;99.90;;;;;;4993616;28;20477;-70
2022/10/30 06:03:35;;;;;;;6.03;5.43;;;17.80;99.90;;;;;;5012233;28;20890;-70
2022/10/30 06:06:01;;;;;;;9.70;5.37;;;17.80;99.90;;;;;;5017322;28;20971;-70
2022/10/30 06:08:30;;;;;;;11.07;5.93;;;17.80;99.90;;;;;;5014380;28;20469;-70
2022/10/30 06:10:59;;;;;;;6.80;5.00;;;17.80;99.90;;;;;;4982898;28;20792;-70
2022/10/30 06:13:31;;;;;;;10.53;5.80;;;17.80;99.90;;;;;;4995744;28;20449;-70
2022/10/30 06:16:04;;;;;;;11.10;5.20;;;17.70;99.90;;;;;;5011271;28;20432;-70
2022/10/30 06:18:50;;;;;;;7.93;5.40;;;17.70;99.90;;;;;;4994764;28;21034;-70
2022/10/30 06:21:19;;;;;;;8.20;4.93;;;17.70;99.90;;;;;;4992049;28;20432;-70
2022/10/30 06:23:54;;;;;;;9.10;5.77;;;17.70;99.90;;;;;;5001440;28;20427;-70
2022/10/30 06:26:40;;;;;;;7.97;5.40;;;17.70;99.90;;;;;;5014356;28;20406;-70
2022/10/30 06:29:14;;;;;;;9.90;5.07;;;17.70;99.90;;;;;;5013698;28;20455;-70
2022/10/30 06:31:43;;;;;;;8.00;5.77;;;17.60;99.90;;;;;;5003120;28;20479;-70
2022/10/30 06:34:09;;;;;;;8.33;5.27;;;17.70;99.90;;;;;;4986500;28;20514;-70
2022/10/30 06:36:41;;;;;;;7.87;5.00;;;17.70;99.90;;;;;;5014479;28;20940;-70
2022/10/30 06:39:09;;;;;;;7.63;4.47;;;17.60;99.90;;;;;;4994395;28;20991;-70
2022/10/30 06:41:59;;;;;;;9.33;5.00;;;17.60;99.90;;;;;;4994466;28;20412;-70
2022/10/30 06:44:42;;;;;;;12.73;5.80;;;17.60;99.90;;;;;;5012323;28;20438;-70
2022/10/30 06:47:08;;;;;;;6.40;5.67;;;17.60;99.90;;;;;;4995339;28;20413;-70
2022/10/30 06:49:37;;;;;;;6.27;5.00;;;17.60;99.90;;;;;;4989338;28;20468;-70
2022/10/30 06:52:05;;;;;;;12.23;5.30;;;17.60;99.90;;;;;;4998322;28;20441;-70
2022/10/30 06:54:34;;;;;;;7.70;4.83;;;17.60;99.90;;;;;;4992889;28;21079;-70
2022/10/30 06:57:02;;;;;;;7.47;5.47;;;17.60;99.90;;;;;;5032682;28;20565;-70
2022/10/30 06:59:34;;;;;;;10.27;5.80;;;17.60;99.90;;;;;;4999923;28;20456;-70
2022/10/30 07:02:18;;;;;;;10.60;6.10;;;17.60;99.90;;;;;;5020307;28;20524;-70
2022/10/30 07:04:50;;;;;;;5.50;4.70;;;17.60;99.90;;;;;;5030062;28;21032;-70
2022/10/30 07:07:16;;;;;;;8.83;5.10;;;17.50;99.90;;;;;;5015310;28;20939;-70
2022/10/30 07:09:45;;;;;;;6.50;5.07;;;17.50;99.90;;;;;;5001649;28;20454;-70
2022/10/30 07:12:14;;;;;;;10.23;5.80;;;17.50;99.90;;;;;;4996354;28;20523;-70
2022/10/30 07:14:49;;;;;;;7.87;5.17;;;17.50;99.90;;;;;;5012815;28;21111;-70
2022/10/30 07:17:56;;;;;;;8.47;5.80;;;17.50;99.90;;;;;;5007978;28;20472;-70
2022/10/30 07:20:27;;;;;;;8.33;4.90;;;17.50;99.90;;;;;;5017012;28;20415;-70
2022/10/30 07:23:13;;;;;;;9.30;5.60;;;17.50;99.90;;;;;;5000433;28;20452;-70
2022/10/30 07:25:39;;;;;;;7.30;4.70;;;17.50;99.90;;;;;;5015103;28;20413;-70
2022/10/30 07:28:38;;;;;;;9.63;5.37;;;17.50;99.90;;;;;;5032708;28;20461;-70
2022/10/30 07:31:34;;;;;;;8.07;5.17;;;17.50;99.90;;;;;;5016118;28;20886;-70
2022/10/30 07:34:24;;;;;;;8.17;5.50;;;17.50;99.90;;;;;;4981011;28;20500;-70
2022/10/30 07:37:18;;;;;;;7.53;4.87;;;17.50;99.90;;;;;;4982299;28;20468;-70
2022/10/30 07:40:23;;;;;;;9.70;5.10;;;17.40;99.90;;;;;;5012635;28;20433;-70
2022/10/30 07:42:56;;;;;;;10.70;5.50;;;17.40;99.90;;;;;;4998176;28;20494;-70
2022/10/30 07:45:46;;;;;;;7.17;5.20;;;17.40;99.90;;;;;;4999882;28;20518;-70
2022/10/30 07:48:31;;;;;;;9.00;6.23;;;17.40;99.90;;;;;;5022993;28;20546;-70
2022/10/30 07:51:22;;;;;;;10.57;5.50;;;17.40;99.90;;;;;;5007547;28;20797;-69
2022/10/30 07:53:50;;;;;;;15.53;7.00;;;17.40;99.90;;;;;;4991868;28;20493;-70
2022/10/30 07:56:16;;;;;;;11.47;6.60;;;17.40;99.90;;;;;;4995895;28;20868;-70
2022/10/30 07:58:51;;;;;;;11.03;6.63;;;17.40;99.90;;;;;;4996506;28;20479;-70
2022/10/30 08:01:32;;;;;;;11.30;6.67;;;17.40;99.90;;;;;;5000170;28;20936;-70
2022/10/30 08:04:12;;;;;;;15.53;7.00;;;17.40;99.90;;;;;;5001882;28;20484;-69
2022/10/30 08:06:41;;;;;;;10.63;7.00;;;17.40;99.90;;;;;;5027218;28;20426;-70
2022/10/30 08:09:07;;;;;;;11.90;7.30;;;17.40;99.90;;;;;;5013579;28;20792;-74
2022/10/30 08:11:34;;;;;;;12.70;7.33;;;17.40;99.90;;;;;;5007882;28;20440;-73
2022/10/30 08:14:00;;;;;;;12.13;7.03;;;17.40;99.90;;;;;;4988678;28;21020;-73
2022/10/30 08:16:26;;;;;;;13.77;6.30;;;17.40;99.90;;;;;;5031077;28;20409;-73
2022/10/30 08:18:52;;;;;;;13.03;7.20;;;17.40;99.90;;;;;;5013096;28;20992;-74
2022/10/30 08:21:22;;;;;;;11.43;7.50;;;17.40;99.90;;;;;;4995254;28;20428;-74
2022/10/30 08:24:13;;;;;;;15.80;7.77;;;17.40;99.90;;;;;;5015445;28;20443;-73
2022/10/30 08:26:44;;;;;;;11.70;6.70;;;17.40;99.90;;;;;;5002325;28;20811;-77
2022/10/30 08:29:13;;;;;;;12.93;7.30;;;17.40;99.90;;;;;;4998972;28;20495;-73
2022/10/30 08:31:43;;;;;;;12.10;6.90;;;17.30;99.90;;;;;;5015261;28;20926;-75
2022/10/30 08:34:22;;;;;;;13.90;6.70;;;17.40;99.90;;;;;;4999330;28;20461;-76
2022/10/30 08:36:53;;;;;;;11.87;6.30;;;17.30;99.90;;;;;;5008534;28;20417;-75
2022/10/30 08:39:19;;;;;;;11.07;6.60;;;17.30;99.90;;;;;;5012975;28;20859;-75
2022/10/30 08:41:57;;;;;;;13.17;6.47;;;17.30;99.90;;;;;;5031723;28;20417;-74
2022/10/30 08:44:23;;;;;;;11.73;7.63;;;17.40;99.90;;;;;;5009121;28;20931;-75
2022/10/30 08:47:24;;;;;;;10.63;7.00;;;17.30;99.90;;;;;;4916198;29;20433;-74
2022/10/30 08:49:55;;;;;;;13.00;6.80;;;17.40;99.90;;;;;;4985653;28;20521;-75
2022/10/30 08:52:24;;;;;;;10.17;6.60;;;17.40;99.90;;;;;;4963388;28;20438;-75
2022/10/30 08:54:57;;;;;;;8.90;5.90;;;17.40;99.90;;;;;;5027654;28;20527;-75
2022/10/30 08:57:26;;;;;;;12.40;6.10;;;17.40;99.90;;;;;;4993757;28;20434;-75
2022/10/30 08:59:55;;;;;;;8.97;6.23;;;17.40;99.90;;;;;;4998184;28;20502;-75
2022/10/30 09:02:39;;;;;;;9.13;6.93;;;17.40;99.90;;;;;;4994887;28;20402;-75
2022/10/30 09:05:40;;;;;;;9.37;6.57;;;17.40;99.90;;;;;;4969044;28;20441;-75
2022/10/30 09:08:47;;;;;;;11.97;6.83;;;17.40;99.90;;;;;;4995758;28;20456;-75
2022/10/30 09:11:32;;;;;;;9.13;5.93;;;17.40;99.90;;;;;;4992707;28;20458;-75
2022/10/30 09:13:58;;;;;;;9.70;6.03;;;17.40;99.90;;;;;;5004349;28;20466;-74
2022/10/30 09:16:31;;;;;;;14.17;6.43;;;17.40;99.90;;;;;;5011614;28;20416;-74
2022/10/30 09:18:57;;;;;;;9.00;5.70;;;17.40;99.90;;;;;;5012774;28;20457;-75
2022/10/30 09:21:23;;;;;;;12.17;6.27;;;17.40;99.90;;;;;;4995464;28;20505;-75
2022/10/30 09:23:52;;;;;;;9.80;5.20;;;17.50;99.90;;;;;;4994968;28;20512;-75
2022/10/30 09:26:33;;;;;;;11.70;6.77;;;17.50;99.90;;;;;;5025587;28;20457;-75
2022/10/30 09:29:20;;;;;;;9.60;6.00;;;17.50;99.90;;;;;;5012397;28;20456;-75
2022/10/30 09:32:10;;;;;;;9.40;6.10;;;17.50;99.90;;;;;;5005519;28;20447;-75
2022/10/30 09:34:50;;;;;;;8.60;5.30;;;17.50;99.90;;;;;;4999120;28;20549;-75
2022/10/30 09:37:22;;;;;;;8.20;4.73;;;17.50;99.90;;;;;;4990313;28;20860;-75
2022/10/30 09:39:55;;;;;;;10.10;6.40;;;17.60;99.90;;;;;;5013330;28;20447;-75
2022/10/30 09:42:41;;;;;;;12.40;5.40;;;17.50;99.90;;;;;;4996509;28;20789;-75
2022/10/30 09:45:16;;;;;;;8.80;5.03;;;17.60;99.90;;;;;;5030920;28;20835;-75
2022/10/30 09:48:04;;;;;;;8.70;5.80;;;17.60;99.90;;;;;;4997905;28;20970;-75
2022/10/30 09:50:48;;;;;;;7.53;6.00;;;17.60;99.90;;;;;;5014610;28;20423;-75
2022/10/30 09:53:29;;;;;;;10.40;5.53;;;17.60;99.90;;;;;;5011301;28;20523;-74
2022/10/30 09:55:56;;;;;;;6.63;5.73;;;17.60;99.90;;;;;;5011667;28;20432;-74
2022/10/30 09:58:34;;;;;;;17.17;5.73;;;17.60;99.90;;;;;;4982439;28;20455;-74
2022/10/30 10:01:25;;;;;;;12.27;5.80;;;17.70;99.90;;;;;;5011125;28;20290;-74
2022/10/30 10:04:24;;;;;;;9.40;5.70;;;17.70;99.90;;;;;;5014606;28;20449;-74
2022/10/30 10:07:20;;;;;;;7.03;5.10;;;17.70;99.90;;;;;;4991981;28;20908;-75
2022/10/30 10:10:50;;;;;;;7.40;5.23;;;17.70;99.90;;;;;;5000301;28;20450;-75
2022/10/30 10:13:28;;;;;;;7.17;5.47;;;17.70;99.90;;;;;;5012334;28;20486;-75
2022/10/30 10:16:06;;;;;;;9.63;5.87;;;17.70;99.90;;;;;;5012297;28;20484;-75
2022/10/30 10:18:46;;;;;;;11.43;6.23;;;17.80;99.90;;;;;;5030314;28;20444;-75
2022/10/30 10:21:27;;;;;;;7.43;5.03;;;17.80;99.90;;;;;;4994701;28;20469;-74
2022/10/30 10:23:56;;;;;;;11.00;6.03;;;17.80;99.90;;;;;;5010596;28;20973;-75
2022/10/30 10:26:30;;;;;;;11.63;5.83;;;17.80;99.90;;;;;;5034655;28;20624;-75
2022/10/30 10:29:15;;;;;;;7.73;5.40;;;17.80;99.90;;;;;;5000625;28;20486;-74
2022/10/30 10:31:41;;;;;;;7.43;5.63;;;17.80;99.90;;;;;;5017755;28;20459;-74
2022/10/30 10:34:38;;;;;;;9.03;5.40;;;17.80;99.90;;;;;;4999560;28;20506;-75
2022/10/30 10:38:01;;;;;;;10.93;6.40;;;17.90;99.90;;;;;;4990313;28;20710;-75
2022/10/30 10:40:54;;;;;;;9.30;5.90;;;17.90;99.90;;;;;;4938129;29;20465;-75
2022/10/30 10:43:34;;;;;;;9.00;6.33;;;17.90;99.90;;;;;;4915673;29;20456;-75
2022/10/30 10:46:21;;;;;;;12.17;5.43;;;17.90;99.90;;;;;;4992899;28;20956;-74
2022/10/30 10:49:09;;;;;;;9.27;5.97;;;17.90;99.90;;;;;;5020273;28;20454;-75
2022/10/30 10:51:44;;;;;;;6.23;5.03;;;18.00;99.90;;;;;;4993275;28;20855;-75
2022/10/30 10:54:51;;;;;;;7.07;5.53;;;18.00;99.90;;;;;;5009962;28;20990;-74
2022/10/30 10:57:35;;;;;;;9.90;5.80;;;18.00;99.90;;;;;;5014399;28;20802;-75
2022/10/30 11:00:16;;;;;;;11.50;6.50;;;18.00;99.90;;;;;;5023039;28;20420;-75
2022/10/30 11:03:10;;;;;;;11.67;5.30;;;18.00;99.90;;;;;;5028363;28;20446;-74
2022/10/30 11:05:58;;;;;;;10.70;4.97;;;18.00;99.90;;;;;;5026505;28;20825;-75
2022/10/30 11:08:29;;;;;;;6.33;5.00;;;18.10;99.90;;;;;;5027142;28;20449;-74
2022/10/30 11:11:03;;;;;;;10.53;5.30;;;18.10;99.90;;;;;;5015103;28;21004;-74
2022/10/30 11:13:33;;;;;;;6.93;5.73;;;18.10;99.90;;;;;;5001579;28;20433;-75
2022/10/30 11:16:22;;;;;;;7.70;4.83;;;18.10;99.90;;;;;;5000855;28;20455;-74
2022/10/30 11:18:54;;;;;;;6.60;4.80;;;18.10;99.90;;;;;;5019919;28;20504;-75
2022/10/30 11:21:23;;;;;;;9.63;5.30;;;18.10;99.90;;;;;;4998112;28;20509;-74
2022/10/30 11:23:50;;;;;;;7.07;5.80;;;18.10;99.90;;;;;;5013557;28;20423;-74
2022/10/30 11:26:27;;;;;;;6.60;5.10;;;18.20;99.90;;;;;;5000965;28;20872;-75
2022/10/30 11:29:00;;;;;;;8.73;5.27;;;18.20;99.90;;;;;;5020623;28;20505;-74
2022/10/30 11:31:36;;;;;;;6.80;5.00;;;18.20;99.90;;;;;;5019683;28;20454;-75
2022/10/30 11:34:13;;;;;;;6.67;4.83;;;18.20;99.90;;;;;;4984434;28;20548;-74
2022/10/30 11:36:39;;;;;;;7.90;5.30;;;18.20;99.90;;;;;;5014745;28;20494;-75
2022/10/30 11:39:19;;;;;;;9.43;5.63;;;18.20;99.90;;;;;;4997248;28;20534;-74
2022/10/30 11:42:11;;;;;;;9.20;5.50;;;18.20;99.90;;;;;;5011794;28;20449;-75
2022/10/30 11:44:47;;;;;;;7.80;5.80;;;18.30;99.90;;;;;;5014582;28;20530;-75
2022/10/30 11:47:15;;;;;;;8.33;5.70;;;18.30;99.90;;;;;;5015095;28;20459;-75
2022/10/30 11:49:52;;;;;;;5.40;4.33;;;18.20;99.90;;;;;;5000286;28;20533;-75
2022/10/30 11:52:21;;;;;;;8.33;5.37;;;18.30;99.90;;;;;;5031345;28;20505;-75
2022/10/30 11:55:01;;;;;;;8.07;4.80;;;18.30;99.90;;;;;;5014356;28;20463;-75
2022/10/30 11:57:39;;;;;;;10.10;5.50;;;18.30;99.90;;;;;;5007257;28;20434;-75
2022/10/30 12:00:21;;;;;;;6.87;4.87;;;18.30;99.90;;;;;;4966833;28;20453;-75
2022/10/30 12:02:53;;;;;;;9.00;5.57;;;18.30;99.90;;;;;;5015322;28;20415;-75
2022/10/30 12:05:24;;;;;;;8.87;5.63;;;18.30;99.90;;;;;;5014056;28;20418;-74
2022/10/30 12:08:09;;;;;;;9.60;5.23;;;18.40;99.90;;;;;;4988105;28;20485;-74
2022/10/30 12:11:04;;;;;;;10.33;5.90;;;18.40;99.90;;;;;;5016220;28;20841;-75
2022/10/30 12:13:38;;;;;;;9.53;5.00;;;18.40;99.90;;;;;;5032152;28;20447;-74
2022/10/30 12:16:19;;;;;;;8.80;5.80;;;18.40;99.90;;;;;;5033779;28;20925;-74
2022/10/30 12:19:05;;;;;;;8.40;4.80;;;18.40;99.90;;;;;;4999282;28;20532;-74
2022/10/30 12:21:43;;;;;;;7.37;4.80;;;18.40;99.90;;;;;;5016170;28;20476;-75
2022/10/30 12:24:38;;;;;;;7.10;5.10;;;18.40;99.90;;;;;;5029492;28;20441;-74
2022/10/30 12:27:13;;;;;;;8.77;4.33;;;18.40;99.90;;;;;;5017446;28;20468;-75
2022/10/30 12:30:00;;;;;;;7.33;4.50;;;18.40;99.90;;;;;;4993490;28;20461;-75
2022/10/30 12:32:34;;;;;;;6.87;4.60;;;18.50;99.90;;;;;;5015522;28;20433;-74
2022/10/30 12:35:28;;;;;;;7.30;5.37;;;18.50;99.90;;;;;;5005345;28;20468;-75
2022/10/30 12:37:57;;;;;;;7.00;4.80;;;18.50;99.90;;;;;;5002757;28;20804;-74
2022/10/30 12:40:29;;;;;;;8.33;4.80;;;18.50;99.90;;;;;;4983609;28;20446;-75
2022/10/30 12:43:03;;;;;;;10.83;5.53;;;18.50;99.90;;;;;;4998635;28;20534;-74
2022/10/30 12:45:50;;;;;;;8.93;5.23;;;18.50;99.90;;;;;;5001141;28;20816;-74
2022/10/30 12:48:23;;;;;;;7.13;5.10;;;18.50;99.90;;;;;;5015384;28;20448;-74
2022/10/30 12:51:13;;;;;;;5.47;4.27;;;18.60;99.90;;;;;;5033181;28;20418;-74
2022/10/30 12:53:47;;;;;;;7.50;5.00;;;18.60;99.90;;;;;;4996386;28;20524;-74
2022/10/30 12:56:20;;;;;;;7.50;5.30;;;18.60;99.90;;;;;;5014890;28;20399;-75
2022/10/30 12:59:31;;;;;;;9.87;5.10;;;18.60;99.90;;;;;;4982711;28;20461;-74
2022/10/30 13:02:31;;;;;;;13.03;5.67;;;18.60;99.90;;;;;;5007963;28;20460;-74
2022/10/30 13:05:03;;;;;;;8.27;6.00;;;18.60;99.90;;;;;;4996551;28;21007;-74
2022/10/30 13:07:40;;;;;;;9.07;5.20;;;18.60;99.90;;;;;;4987037;28;20816;-74
2022/10/30 13:10:26;;;;;;;10.40;5.37;;;18.60;99.90;;;;;;4995168;28;20403;-74
2022/10/30 13:12:57;;;;;;;9.00;5.07;;;18.60;99.90;;;;;;5010880;28;20509;-74
2022/10/30 13:15:26;;;;;;;9.40;4.83;;;18.60;99.90;;;;;;5032714;28;20463;-74
2022/10/30 13:17:57;;;;;;;8.33;5.03;;;18.60;99.90;;;;;;5013061;28;20447;-74
2022/10/30 13:20:25;;;;;;;7.90;5.03;;;18.70;99.90;;;;;;5014602;28;21014;-74
2022/10/30 13:23:05;;;;;;;6.80;5.13;;;18.70;99.90;;;;;;5011300;28;20781;-74
2022/10/30 13:26:07;;;;;;;7.87;4.63;;;18.70;99.90;;;;;;4995262;28;20995;-74